createdAt,value
2023-03-12T00:00:57.765Z,60.32
2023-03-12T00:03:28.704Z,60.19
2023-03-12T00:06:09.830Z,60.05
2023-03-12T00:08:41.744Z,60.13
2023-03-12T00:11:15.035Z,60.09
2023-03-12T00:13:49.858Z,60.13
2023-03-12T00:16:21.517Z,60.27
2023-03-12T00:18:56.564Z,60.36
2023-03-12T00:21:28.203Z,60.38
2023-03-12T00:23:59.087Z,60.42
2023-03-12T00:26:30.074Z,60.46
2023-03-12T00:29:01.088Z,60.39
2023-03-12T00:31:33.904Z,60.42
2023-03-12T00:34:05.281Z,60.27
2023-03-12T00:36:36.627Z,60.45
2023-03-12T00:39:08.210Z,60.70
2023-03-12T00:41:39.250Z,60.85
2023-03-12T00:44:10.278Z,61.11
2023-03-12T00:46:41.226Z,61.40
2023-03-12T00:49:12.486Z,61.34
2023-03-12T00:51:43.604Z,61.52
2023-03-12T00:54:14.453Z,61.45
2023-03-12T00:56:46.874Z,61.46
2023-03-12T00:59:18.317Z,61.57
2023-03-12T01:01:50.500Z,61.64
2023-03-12T01:04:21.630Z,61.78
2023-03-12T01:06:52.551Z,61.76
2023-03-12T01:09:23.455Z,62.11
2023-03-12T01:11:55.883Z,61.90
2023-03-12T01:14:27.709Z,61.97
2023-03-12T01:16:59.068Z,62.31
2023-03-12T01:19:30.394Z,62.29
2023-03-12T01:22:01.342Z,62.29
2023-03-12T01:24:33.410Z,62.27
2023-03-12T01:27:04.422Z,62.34
2023-03-12T01:29:35.632Z,62.26
2023-03-12T01:32:07.882Z,62.13
2023-03-12T01:34:38.856Z,62.32
2023-03-12T01:37:11.474Z,62.42
2023-03-12T01:39:42.898Z,62.42
2023-03-12T01:42:15.216Z,62.35
2023-03-12T01:44:54.881Z,62.14
2023-03-12T01:47:26.733Z,62.34
2023-03-12T01:49:59.181Z,62.50
2023-03-12T01:52:33.512Z,62.53
2023-03-12T01:55:10.494Z,62.63
2023-03-12T01:57:48.806Z,62.62
2023-03-12T02:00:25.173Z,62.66
2023-03-12T02:03:00.015Z,62.59
2023-03-12T02:05:43.764Z,62.62
2023-03-12T02:08:16.724Z,62.61
2023-03-12T02:10:48.652Z,62.45
2023-03-12T02:13:19.981Z,62.62
2023-03-12T02:15:51.395Z,62.40
2023-03-12T02:18:22.900Z,62.52
2023-03-12T02:21:03.623Z,62.58
2023-03-12T02:23:39.641Z,62.47
2023-03-12T02:26:13.268Z,62.24
2023-03-12T02:28:46.705Z,62.49
2023-03-12T02:31:21.915Z,62.43
2023-03-12T02:33:53.053Z,62.44
2023-03-12T02:36:24.255Z,62.71
2023-03-12T02:38:56.947Z,62.60
2023-03-12T02:41:30.475Z,62.49
2023-03-12T02:44:05.758Z,62.42
2023-03-12T02:46:40.768Z,62.46
2023-03-12T02:49:13.422Z,62.44
2023-03-12T02:51:45.717Z,62.46
2023-03-12T02:54:18.236Z,62.69
2023-03-12T02:56:50.063Z,62.66
2023-03-12T02:59:22.982Z,62.50
2023-03-12T03:01:57.868Z,62.79
2023-03-12T03:04:29.916Z,62.76
2023-03-12T03:07:01.173Z,62.75
2023-03-12T03:09:32.305Z,62.90
2023-03-12T03:12:03.607Z,62.95
2023-03-12T03:14:35.504Z,62.90
2023-03-12T03:17:06.600Z,62.98
2023-03-12T03:19:37.446Z,63.04
2023-03-12T03:22:09.240Z,62.97
2023-03-12T03:24:40.271Z,62.90
2023-03-12T03:27:11.258Z,62.72
2023-03-12T03:29:42.370Z,62.90
2023-03-12T03:32:13.319Z,62.93
2023-03-12T03:34:44.541Z,62.85
2023-03-12T03:37:15.808Z,62.89
2023-03-12T03:39:47.246Z,62.67
2023-03-12T03:42:18.475Z,62.44
2023-03-12T03:44:49.724Z,62.69
2023-03-12T03:47:21.525Z,62.86
2023-03-12T03:49:52.514Z,62.71
2023-03-12T03:52:23.573Z,62.62
2023-03-12T03:54:54.732Z,62.53
2023-03-12T03:57:25.978Z,62.47
2023-03-12T04:00:00.917Z,62.67
2023-03-12T04:02:33.664Z,62.66
2023-03-12T04:05:05.193Z,62.72
2023-03-12T04:07:36.146Z,62.73
2023-03-12T04:10:08.449Z,62.89
2023-03-12T04:12:39.519Z,62.84
2023-03-12T04:15:11.441Z,62.50
2023-03-12T04:17:42.923Z,62.79
2023-03-12T04:20:15.840Z,62.89
2023-03-12T04:22:46.948Z,62.89
2023-03-12T04:25:18.521Z,62.68
2023-03-12T04:27:49.363Z,62.79
2023-03-12T04:30:20.770Z,62.70
2023-03-12T04:32:52.861Z,62.66
2023-03-12T04:35:26.525Z,62.51
2023-03-12T04:37:57.483Z,62.70
2023-03-12T04:40:29.035Z,62.57
2023-03-12T04:43:00.236Z,62.66
2023-03-12T04:45:33.189Z,62.48
2023-03-12T04:48:05.014Z,62.54
2023-03-12T04:50:36.903Z,62.69
2023-03-12T04:53:08.048Z,62.65
2023-03-12T04:55:39.192Z,62.63
2023-03-12T04:58:10.166Z,62.52
2023-03-12T05:00:43.665Z,62.49
2023-03-12T05:03:15.071Z,62.47
2023-03-12T05:05:46.846Z,62.44
2023-03-12T05:08:18.371Z,62.59
2023-03-12T05:10:49.597Z,62.24
2023-03-12T05:13:23.600Z,62.49
2023-03-12T05:15:59.159Z,62.29
2023-03-12T05:18:30.695Z,62.27
2023-03-12T05:21:03.675Z,62.40
2023-03-12T05:23:35.402Z,62.42
2023-03-12T05:26:06.641Z,62.52
2023-03-12T05:28:38.329Z,62.55
2023-03-12T05:31:13.022Z,62.37
2023-03-12T05:33:44.506Z,62.73
2023-03-12T05:36:17.968Z,63.06
2023-03-12T05:38:49.677Z,62.81
2023-03-12T05:41:24.549Z,62.63
2023-03-12T05:43:58.281Z,62.72
2023-03-12T05:46:30.144Z,62.81
2023-03-12T05:49:02.085Z,62.72
2023-03-12T05:51:35.853Z,62.65
2023-03-12T05:54:06.887Z,62.69
2023-03-12T05:56:38.649Z,62.84
2023-03-12T05:59:10.824Z,62.83
2023-03-12T06:01:43.020Z,62.94
2023-03-12T06:04:14.042Z,62.74
2023-03-12T06:06:45.011Z,62.84
2023-03-12T06:09:15.993Z,62.80
2023-03-12T06:11:46.998Z,62.90
2023-03-12T06:14:18.147Z,62.71
2023-03-12T06:16:49.365Z,62.68
2023-03-12T06:19:20.492Z,62.71
2023-03-12T06:21:53.602Z,62.54
2023-03-12T06:24:24.720Z,62.34
2023-03-12T06:27:03.089Z,62.47
2023-03-12T06:29:33.975Z,62.74
2023-03-12T06:32:05.197Z,62.73
2023-03-12T06:34:36.234Z,62.61
2023-03-12T06:37:07.362Z,62.61
2023-03-12T06:39:38.776Z,62.28
2023-03-12T06:42:11.084Z,61.95
2023-03-12T06:44:42.016Z,61.92
2023-03-12T06:47:13.057Z,61.82
2023-03-12T06:49:44.033Z,61.60
2023-03-12T06:52:15.078Z,61.48
2023-03-12T06:54:46.191Z,61.36
2023-03-12T06:57:17.993Z,61.47
2023-03-12T06:59:50.657Z,61.19
2023-03-12T07:02:21.747Z,61.06
2023-03-12T07:04:53.050Z,61.00
2023-03-12T07:07:24.252Z,61.09
2023-03-12T07:09:55.145Z,60.88
2023-03-12T07:12:26.213Z,61.87
2023-03-12T07:14:57.118Z,61.61
2023-03-12T07:17:28.208Z,62.65
2023-03-12T07:19:59.771Z,65.10
2023-03-12T07:22:30.812Z,65.22
2023-03-12T07:25:01.844Z,62.36
2023-03-12T07:27:33.071Z,58.93
2023-03-12T07:30:03.998Z,58.34
2023-03-12T07:32:36.832Z,58.18
2023-03-12T07:35:08.910Z,58.20
2023-03-12T07:37:40.139Z,56.31
2023-03-12T07:40:13.382Z,54.28
2023-03-12T07:42:44.307Z,53.32
2023-03-12T07:45:18.344Z,53.87
2023-03-12T07:47:50.153Z,53.61
2023-03-12T07:50:22.056Z,51.99
2023-03-12T07:52:52.993Z,51.23
2023-03-12T07:55:24.324Z,49.97
2023-03-12T07:57:58.587Z,49.26
2023-03-12T08:00:31.090Z,50.68
2023-03-12T08:03:02.375Z,49.95
2023-03-12T08:05:34.071Z,48.95
2023-03-12T08:08:05.132Z,48.06
2023-03-12T08:10:37.251Z,47.48
2023-03-12T08:13:08.458Z,47.63
2023-03-12T08:15:39.372Z,47.24
2023-03-12T08:18:10.518Z,47.36
2023-03-12T08:20:41.484Z,47.39
2023-03-12T08:23:12.599Z,47.22
2023-03-12T08:25:47.911Z,47.23
2023-03-12T08:28:20.689Z,47.35
2023-03-12T08:30:53.256Z,47.91
2023-03-12T08:33:28.048Z,48.33
2023-03-12T08:35:59.092Z,48.50
2023-03-12T08:38:30.064Z,48.96
2023-03-12T08:41:02.332Z,49.11
2023-03-12T08:43:33.427Z,49.71
2023-03-12T08:46:06.159Z,49.59
2023-03-12T08:48:37.479Z,49.32
2023-03-12T08:51:09.369Z,48.66
2023-03-12T08:53:40.525Z,47.78
2023-03-12T08:56:12.100Z,47.04
2023-03-12T08:58:43.598Z,46.86
2023-03-12T09:01:15.303Z,46.21
2023-03-12T09:03:47.610Z,46.21
2023-03-12T09:06:19.579Z,46.56
2023-03-12T09:08:54.428Z,46.81
2023-03-12T09:11:25.689Z,46.31
2023-03-12T09:14:33.562Z,46.32
2023-03-12T09:16:47.966Z,46.23
2023-03-12T09:19:19.173Z,45.70
2023-03-12T09:21:50.244Z,45.65
2023-03-12T09:24:21.637Z,45.12
2023-03-12T09:26:52.844Z,45.20
2023-03-12T09:29:24.844Z,45.08
2023-03-12T09:31:55.996Z,45.35
2023-03-12T09:34:27.216Z,45.47
2023-03-12T09:36:58.490Z,45.41
2023-03-12T09:39:29.803Z,45.40
2023-03-12T09:42:00.958Z,45.22
2023-03-12T09:44:39.335Z,45.24
2023-03-12T09:47:19.045Z,44.93
2023-03-12T09:49:55.069Z,44.35
2023-03-12T09:52:35.080Z,44.49
2023-03-12T09:55:15.082Z,44.39
2023-03-12T09:57:47.464Z,44.14
2023-03-12T10:00:29.805Z,44.33
2023-03-12T10:03:24.018Z,44.35
2023-03-12T10:06:10.249Z,44.13
2023-03-12T10:09:02.077Z,44.31
2023-03-12T10:11:43.252Z,44.27
2023-03-12T10:14:38.230Z,44.14
2023-03-12T10:17:31.495Z,44.27
2023-03-12T10:20:22.111Z,44.38
2023-03-12T10:23:01.704Z,44.73
2023-03-12T10:25:42.447Z,44.81
2023-03-12T10:28:19.836Z,44.77
2023-03-12T10:30:56.078Z,44.71
2023-03-12T10:33:39.980Z,45.01
2023-03-12T10:36:18.612Z,45.02
2023-03-12T10:38:50.860Z,45.17
2023-03-12T10:41:25.359Z,45.18
2023-03-12T10:43:58.350Z,45.25
2023-03-12T10:46:46.994Z,45.38
2023-03-12T10:49:31.360Z,45.02
2023-03-12T10:52:06.244Z,44.98
2023-03-12T10:54:44.836Z,44.91
2023-03-12T10:57:17.106Z,44.86
2023-03-12T10:59:51.875Z,45.17
2023-03-12T11:02:38.772Z,45.02
2023-03-12T11:05:24.837Z,45.16
2023-03-12T11:07:57.130Z,45.42
2023-03-12T11:10:47.237Z,45.47
2023-03-12T11:13:31.275Z,45.29
2023-03-12T11:16:04.652Z,45.25
2023-03-12T11:18:40.566Z,44.62
2023-03-12T11:21:22.813Z,44.19
2023-03-12T11:24:14.456Z,43.92
2023-03-12T11:26:58.828Z,43.67
2023-03-12T11:29:36.640Z,43.01
2023-03-12T11:32:17.706Z,42.77
2023-03-12T11:34:50.470Z,42.53
2023-03-12T11:37:32.949Z,42.53
2023-03-12T11:40:18.150Z,42.12
2023-03-12T11:43:05.445Z,42.02
2023-03-12T11:45:49.217Z,41.96
2023-03-12T11:48:32.840Z,41.80
2023-03-12T11:51:17.377Z,41.30
2023-03-12T11:54:07.930Z,41.30
2023-03-12T11:56:45.919Z,41.56
2023-03-12T11:59:32.289Z,41.70
2023-03-12T12:02:18.908Z,41.58
2023-03-12T12:08:22.206Z,41.27
2023-03-12T12:11:02.476Z,41.16
2023-03-12T12:13:44.202Z,40.76
2023-03-12T12:16:36.076Z,40.85
2023-03-12T12:19:20.346Z,40.99
2023-03-12T12:22:10.948Z,40.61
2023-03-12T12:25:13.814Z,40.15
2023-03-12T12:27:51.562Z,40.30
2023-03-12T12:30:29.925Z,40.42
2023-03-12T12:33:22.845Z,40.67
2023-03-12T12:35:54.176Z,40.39
2023-03-12T12:38:34.327Z,40.35
2023-03-12T12:41:12.672Z,40.03
2023-03-12T12:43:48.411Z,40.17
2023-03-12T12:46:22.283Z,39.93
2023-03-12T12:48:57.016Z,40.02
2023-03-12T12:51:31.507Z,40.09
2023-03-12T12:54:09.872Z,40.56
2023-03-12T12:56:50.066Z,40.56
2023-03-12T12:59:33.344Z,40.58
2023-03-12T13:02:13.739Z,40.49
2023-03-12T13:04:45.763Z,40.76
2023-03-12T13:07:37.952Z,40.68
2023-03-12T13:10:48.955Z,40.61
2023-03-12T13:13:30.054Z,40.58
2023-03-12T13:16:29.353Z,40.73
2023-03-12T13:19:02.620Z,40.79
2023-03-12T13:21:41.838Z,40.82
2023-03-12T13:24:23.908Z,41.03
2023-03-12T13:27:05.842Z,41.08
2023-03-12T13:29:43.268Z,41.33
2023-03-12T13:33:02.037Z,41.33
2023-03-12T13:35:37.345Z,41.31
2023-03-12T13:38:19.050Z,41.46
2023-03-12T13:41:02.439Z,41.29
2023-03-12T13:43:56.612Z,41.08
2023-03-12T13:46:43.032Z,41.07
2023-03-12T13:49:21.083Z,41.00
2023-03-12T13:52:23.501Z,41.16
2023-03-12T13:55:03.025Z,41.36
2023-03-12T13:57:41.242Z,41.37
2023-03-12T14:00:22.091Z,41.68
2023-03-12T14:03:00.974Z,41.89
2023-03-12T14:05:36.229Z,41.81
2023-03-12T14:08:41.004Z,41.64
2023-03-12T14:11:28.763Z,41.50
2023-03-12T14:14:34.936Z,41.52
2023-03-12T14:17:05.878Z,41.56
2023-03-12T14:19:37.852Z,41.36
2023-03-12T14:22:13.680Z,41.26
2023-03-12T14:24:54.373Z,41.03
2023-03-12T14:27:30.804Z,41.00
2023-03-12T14:30:11.539Z,41.23
2023-03-12T14:32:45.250Z,41.27
2023-03-12T14:35:23.371Z,41.33
2023-03-12T14:38:00.952Z,41.50
2023-03-12T14:40:41.130Z,41.68
2023-03-12T14:43:27.154Z,41.73
2023-03-12T14:46:00.355Z,41.78
2023-03-12T14:48:33.808Z,41.59
2023-03-12T14:51:06.587Z,41.43
2023-03-12T14:53:39.768Z,41.39
2023-03-12T14:56:16.882Z,41.46
2023-03-12T14:58:50.034Z,41.47
2023-03-12T15:01:24.421Z,41.78
2023-03-12T15:03:58.483Z,41.54
2023-03-12T15:06:33.855Z,41.78
2023-03-12T15:09:06.744Z,41.96
2023-03-12T15:11:38.786Z,42.11
2023-03-12T15:14:14.921Z,42.35
2023-03-12T15:16:46.644Z,42.27
2023-03-12T15:19:21.828Z,42.33
2023-03-12T15:21:51.393Z,42.53
2023-03-12T15:24:22.677Z,42.67
2023-03-12T15:26:53.364Z,42.92
2023-03-12T15:29:27.973Z,43.15
2023-03-12T15:32:00.836Z,43.14
2023-03-12T15:34:35.323Z,43.26
2023-03-12T15:37:28.781Z,43.15
2023-03-12T15:40:00.537Z,43.48
2023-03-12T15:42:37.987Z,43.77
2023-03-12T15:45:20.700Z,43.80
2023-03-12T15:47:53.259Z,43.76
2023-03-12T15:50:28.297Z,43.74
2023-03-12T15:53:25.612Z,43.89
2023-03-12T15:56:04.759Z,43.93
2023-03-12T15:58:37.164Z,44.02
2023-03-12T16:01:13.586Z,44.04
2023-03-12T16:03:46.530Z,44.41
2023-03-12T16:06:20.119Z,44.43
2023-03-12T16:08:54.712Z,44.48
2023-03-12T16:11:27.756Z,44.44
2023-03-12T16:14:04.138Z,44.44
2023-03-12T16:16:35.623Z,44.84
2023-03-12T16:19:10.883Z,44.38
2023-03-12T16:21:42.137Z,44.90
2023-03-12T16:24:13.482Z,44.89
2023-03-12T16:26:50.936Z,45.09
2023-03-12T16:29:23.242Z,44.90
2023-03-12T16:31:56.775Z,45.00
2023-03-12T16:34:28.067Z,45.34
2023-03-12T16:36:59.281Z,45.40
2023-03-12T16:39:33.264Z,45.53
2023-03-12T16:42:06.991Z,45.75
2023-03-12T16:44:38.019Z,45.63
2023-03-12T16:47:13.374Z,45.69
2023-03-12T16:49:46.163Z,45.76
2023-03-12T16:52:22.435Z,45.91
2023-03-12T16:54:54.261Z,45.81
2023-03-12T16:57:33.184Z,45.89
2023-03-12T17:00:08.020Z,45.96
2023-03-12T17:02:39.758Z,46.21
2023-03-12T17:05:12.666Z,46.32
2023-03-12T17:07:44.098Z,46.44
2023-03-12T17:10:17.861Z,46.55
2023-03-12T17:12:49.265Z,46.71
2023-03-12T17:15:23.730Z,46.82
2023-03-12T17:17:56.806Z,46.73
2023-03-12T17:20:29.022Z,46.84
2023-03-12T17:23:00.220Z,47.29
2023-03-12T17:25:33.262Z,47.45
2023-03-12T17:28:04.798Z,47.77
2023-03-12T17:30:36.869Z,47.53
2023-03-12T17:33:11.214Z,47.81
2023-03-12T17:35:43.606Z,48.02
2023-03-12T17:38:15.323Z,48.17
2023-03-12T17:40:46.548Z,48.23
2023-03-12T17:43:17.517Z,48.50
2023-03-12T17:45:48.422Z,48.90
2023-03-12T17:48:20.165Z,48.59
2023-03-12T17:50:51.254Z,48.69
2023-03-12T17:53:22.337Z,49.20
2023-03-12T17:55:53.171Z,49.09
2023-03-12T17:58:24.577Z,49.52
2023-03-12T18:00:55.505Z,49.33
2023-03-12T18:03:27.369Z,49.42
2023-03-12T18:05:58.318Z,49.43
2023-03-12T18:08:29.487Z,49.42
2023-03-12T18:11:01.750Z,49.73
2023-03-12T18:13:32.805Z,49.90
2023-03-12T18:16:03.639Z,49.92
2023-03-12T18:18:34.461Z,50.00
2023-03-12T18:21:05.570Z,50.52
2023-03-12T18:23:36.453Z,50.32
2023-03-12T18:26:09.086Z,50.41
2023-03-12T18:28:40.657Z,50.79
2023-03-12T18:31:12.910Z,50.65
2023-03-12T18:33:44.635Z,50.77
2023-03-12T18:36:15.546Z,50.90
2023-03-12T18:38:46.830Z,51.10
2023-03-12T18:41:18.614Z,51.37
2023-03-12T18:43:50.328Z,51.31
2023-03-12T18:46:23.921Z,51.42
2023-03-12T18:48:55.905Z,51.47
2023-03-12T18:51:26.756Z,51.70
2023-03-12T18:53:58.597Z,51.43
2023-03-12T18:56:32.182Z,51.48
2023-03-12T18:59:04.807Z,51.43
2023-03-12T19:01:36.108Z,51.38
2023-03-12T19:04:07.399Z,51.44
2023-03-12T19:06:50.314Z,51.57
2023-03-12T19:09:22.604Z,51.56
2023-03-12T19:11:53.768Z,51.51
2023-03-12T19:14:26.373Z,51.57
2023-03-12T19:16:57.418Z,51.63
2023-03-12T19:19:28.648Z,51.40
2023-03-12T19:21:59.530Z,51.75
2023-03-12T19:24:30.490Z,51.55
2023-03-12T19:27:01.359Z,51.68
2023-03-12T19:29:32.387Z,51.76
2023-03-12T19:32:03.157Z,51.70
2023-03-12T19:34:34.089Z,51.77
2023-03-12T19:37:04.844Z,51.86
2023-03-12T19:39:35.657Z,51.80
2023-03-12T19:42:06.572Z,51.97
2023-03-12T19:44:39.141Z,51.80
2023-03-12T19:47:09.969Z,52.23
2023-03-12T19:49:41.067Z,52.08
2023-03-12T19:52:12.038Z,52.00
2023-03-12T19:54:49.095Z,52.00
2023-03-12T19:57:25.797Z,52.22
2023-03-12T19:59:56.727Z,52.09
2023-03-12T20:02:27.634Z,52.18
2023-03-12T20:04:58.516Z,52.01
2023-03-12T20:07:29.503Z,52.26
2023-03-12T20:10:00.745Z,52.06
2023-03-12T20:12:31.525Z,52.23
2023-03-12T20:15:02.371Z,52.40
2023-03-12T20:17:33.152Z,52.04
2023-03-12T20:20:05.891Z,52.59
2023-03-12T20:22:37.120Z,52.44
2023-03-12T20:25:10.458Z,52.38
2023-03-12T20:27:41.370Z,51.99
2023-03-12T20:30:14.890Z,52.27
2023-03-12T20:32:45.775Z,52.23
2023-03-12T20:35:16.663Z,52.44
2023-03-12T20:37:47.443Z,52.56
2023-03-12T20:40:18.805Z,52.08
2023-03-12T20:42:49.577Z,52.33
2023-03-12T20:45:20.874Z,52.45
2023-03-12T20:47:51.800Z,52.29
2023-03-12T20:50:22.599Z,52.66
2023-03-12T20:52:53.394Z,52.67
2023-03-12T20:55:24.446Z,52.66
2023-03-12T20:57:55.292Z,52.70
2023-03-12T21:00:26.689Z,52.83
2023-03-12T21:02:57.518Z,52.81
2023-03-12T21:05:29.222Z,52.76
2023-03-12T21:08:00.758Z,52.77
2023-03-12T21:10:31.872Z,52.92
2023-03-12T21:13:02.862Z,52.88
2023-03-12T21:15:33.774Z,52.99
2023-03-12T21:18:04.869Z,52.78
2023-03-12T21:20:37.619Z,52.64
2023-03-12T21:23:08.910Z,52.83
2023-03-12T21:25:41.653Z,52.77
2023-03-12T21:28:13.338Z,52.82
2023-03-12T21:30:44.206Z,53.13
2023-03-12T21:33:15.146Z,52.98
2023-03-12T21:35:48.002Z,53.00
2023-03-12T21:38:18.850Z,52.89
2023-03-12T21:40:49.768Z,53.08
2023-03-12T21:43:20.831Z,53.21
2023-03-12T21:45:51.934Z,53.20
2023-03-12T21:48:22.779Z,53.14
2023-03-12T21:50:53.944Z,52.99
2023-03-12T21:53:29.393Z,53.00
2023-03-12T21:56:02.147Z,52.93
2023-03-12T21:58:34.525Z,53.14
2023-03-12T22:01:11.508Z,53.34
2023-03-12T22:03:44.665Z,53.40
2023-03-12T22:06:16.859Z,53.47
2023-03-12T22:08:49.258Z,53.70
2023-03-12T22:11:20.051Z,53.77
2023-03-12T22:13:50.753Z,53.65
2023-03-12T22:16:21.544Z,53.51
2023-03-12T22:18:54.519Z,53.44
2023-03-12T22:21:26.224Z,53.29
2023-03-12T22:23:58.270Z,53.55
2023-03-12T22:26:29.490Z,53.89
2023-03-12T22:29:01.390Z,53.81
2023-03-12T22:31:32.738Z,53.98
2023-03-12T22:34:03.969Z,54.11
2023-03-12T22:36:34.793Z,53.98
2023-03-12T22:39:07.815Z,54.16
2023-03-12T22:41:38.691Z,54.13
2023-03-12T22:44:11.229Z,54.39
2023-03-12T22:46:42.083Z,54.16
2023-03-12T22:49:12.996Z,54.09
2023-03-12T22:51:44.086Z,53.93
2023-03-12T22:54:14.860Z,53.87
2023-03-12T22:56:45.577Z,54.24
2023-03-12T22:59:16.313Z,54.26
2023-03-12T23:01:47.111Z,54.48
2023-03-12T23:04:17.863Z,54.44
2023-03-12T23:06:48.694Z,54.61
2023-03-12T23:09:19.532Z,54.81
2023-03-12T23:11:50.188Z,54.80
2023-03-12T23:14:20.939Z,55.01
2023-03-12T23:16:51.637Z,54.83
2023-03-12T23:19:22.368Z,54.94
2023-03-12T23:21:56.455Z,55.10
2023-03-12T23:24:30.345Z,55.01
2023-03-12T23:27:14.583Z,54.98
2023-03-12T23:29:45.350Z,55.13
2023-03-12T23:32:30.830Z,55.38
2023-03-12T23:35:21.309Z,55.23
2023-03-12T23:37:53.348Z,55.38
2023-03-12T23:40:24.200Z,55.15
2023-03-12T23:42:54.910Z,55.24
2023-03-12T23:45:25.795Z,55.30
2023-03-12T23:47:56.566Z,55.58
2023-03-12T23:50:28.961Z,55.31
2023-03-12T23:52:59.992Z,55.39
2023-03-12T23:55:31.038Z,55.30
2023-03-12T23:58:02.441Z,55.46
